Time;durP1;ratioP1;P1;durP2;ratioP2;P2;SDS_P1;SDS_P2;PMS_P1;PMS_P2;Temp;Humidity;BMP_temperature;BMP_pressure;BME280_temperature;BME280_humidity;BME280_pressure;Samples;Min_cycle;Max_cycle;Signal;HPM_P1;HPM_P2
2023/05/13 00:01:48;;;;;;;16.42;14.73;;;11.90;99.90;;;;;;5006391;28;20073;-61
2023/05/13 00:04:14;;;;;;;17.75;14.52;;;12.00;99.90;;;;;;5002346;28;22004;-61
2023/05/13 00:06:39;;;;;;;20.73;17.13;;;12.00;99.90;;;;;;4995390;28;20493;-61
2023/05/13 00:09:05;;;;;;;19.73;17.50;;;12.00;99.90;;;;;;5008861;28;20029;-62
2023/05/13 00:11:30;;;;;;;22.13;18.30;;;11.90;99.90;;;;;;5006666;28;20033;-61
2023/05/13 00:13:56;;;;;;;21.48;17.85;;;12.00;99.90;;;;;;5006024;28;20034;-61
2023/05/13 00:16:24;;;;;;;18.13;16.23;;;12.20;99.90;;;;;;5010483;28;20461;-62
2023/05/13 00:18:50;;;;;;;20.55;17.05;;;12.30;99.90;;;;;;4998879;28;20031;-61
2023/05/13 00:21:16;;;;;;;19.67;17.58;;;12.40;99.90;;;;;;4995821;28;20061;-61
2023/05/13 00:23:41;;;;;;;19.10;16.65;;;12.60;99.90;;;;;;5009723;28;20036;-61
2023/05/13 00:26:07;;;;;;;22.90;16.55;;;12.20;99.90;;;;;;5002956;28;20030;-61
2023/05/13 00:28:32;;;;;;;20.52;17.27;;;12.10;99.90;;;;;;5002376;28;20046;-61
2023/05/13 00:30:58;;;;;;;19.33;16.48;;;11.90;99.90;;;;;;5005324;28;20029;-61
2023/05/13 00:33:23;;;;;;;19.50;16.42;;;12.00;99.90;;;;;;5007525;28;20401;-61
2023/05/13 00:35:49;;;;;;;18.23;16.13;;;12.10;99.90;;;;;;5010184;28;20168;-62
2023/05/13 00:38:14;;;;;;;18.98;16.77;;;11.90;99.90;;;;;;5009403;28;20383;-61
2023/05/13 00:40:41;;;;;;;19.45;16.98;;;11.70;99.90;;;;;;5012983;28;20406;-62
2023/05/13 00:43:06;;;;;;;17.58;15.75;;;11.70;99.90;;;;;;4998946;28;20494;-61
2023/05/13 00:45:32;;;;;;;18.65;16.48;;;11.90;99.90;;;;;;4993910;28;20069;-61
2023/05/13 00:47:59;;;;;;;19.20;16.67;;;12.00;99.90;;;;;;4997294;28;20087;-62
2023/05/13 00:50:24;;;;;;;20.63;16.58;;;12.20;99.90;;;;;;5001592;28;20400;-61
2023/05/13 00:52:50;;;;;;;21.70;16.60;;;12.30;99.90;;;;;;5008338;28;20038;-61
2023/05/13 00:55:16;;;;;;;23.52;15.82;;;12.40;99.90;;;;;;5008066;28;20476;-62
2023/05/13 00:57:42;;;;;;;18.42;14.80;;;12.40;99.90;;;;;;4995624;28;20521;-63
2023/05/13 01:00:09;;;;;;;16.48;14.68;;;12.30;99.90;;;;;;4995293;28;20034;-61
2023/05/13 01:03:17;;;;;;;16.20;14.60;;;12.20;99.90;;;;;;5007646;28;20034;-62
2023/05/13 01:06:11;;;;;;;16.13;14.35;;;12.00;99.90;;;;;;5001522;28;20403;-62
2023/05/13 01:08:42;;;;;;;;;;;12.00;99.90;;;;;;5000882;28;20037;-62
2023/05/13 01:11:16;;;;;;;16.10;14.23;;;12.00;99.90;;;;;;4996861;28;19921;-61
2023/05/13 01:13:45;;;;;;;17.35;14.50;;;12.00;99.90;;;;;;4999400;28;20034;-62
2023/05/13 01:16:28;;;;;;;15.18;13.60;;;11.90;99.90;;;;;;4997545;28;20046;-61
2023/05/13 01:19:01;;;;;;;15.95;13.52;;;12.00;99.90;;;;;;4988996;28;20533;-61
2023/05/13 01:21:27;;;;;;;16.10;14.18;;;12.00;99.90;;;;;;5000578;28;20049;-61
2023/05/13 01:23:53;;;;;;;16.15;13.93;;;12.10;99.90;;;;;;5000781;28;20122;-61
2023/05/13 01:26:20;;;;;;;16.17;14.23;;;12.00;99.90;;;;;;5001640;28;20425;-61
2023/05/13 01:28:46;;;;;;;15.57;14.00;;;12.00;99.90;;;;;;5000866;28;20698;-62
2023/05/13 01:31:12;;;;;;;15.73;14.23;;;11.90;99.90;;;;;;5011092;28;20034;-61
2023/05/13 01:33:40;;;;;;;15.65;14.02;;;11.90;99.90;;;;;;4999845;28;20039;-61
2023/05/13 01:36:07;;;;;;;18.65;14.40;;;11.90;99.90;;;;;;5014164;28;20516;-61
2023/05/13 01:38:34;;;;;;;16.10;14.50;;;12.00;99.90;;;;;;4999984;28;20136;-62
2023/05/13 01:41:00;;;;;;;18.33;14.57;;;11.90;99.90;;;;;;5010700;28;20759;-62
2023/05/13 01:43:26;;;;;;;16.63;13.65;;;12.00;99.90;;;;;;5005030;28;20129;-61
2023/05/13 01:45:52;;;;;;;17.10;14.23;;;11.90;99.90;;;;;;5000814;28;20034;-62
2023/05/13 01:48:17;;;;;;;18.83;14.82;;;12.00;99.90;;;;;;5004096;28;20037;-62
2023/05/13 01:50:43;;;;;;;16.77;13.88;;;12.00;99.90;;;;;;5009989;28;20045;-62
2023/05/13 01:53:09;;;;;;;19.85;14.80;;;11.70;99.90;;;;;;5012409;28;20038;-61
2023/05/13 01:55:35;;;;;;;15.38;13.77;;;11.80;99.90;;;;;;5009935;28;20053;-62
2023/05/13 01:58:00;;;;;;;17.08;15.18;;;11.70;99.90;;;;;;5004071;28;20173;-62
2023/05/13 02:00:26;;;;;;;17.27;13.80;;;11.60;99.90;;;;;;5007161;28;20041;-61
2023/05/13 02:02:51;;;;;;;17.20;13.77;;;11.70;99.90;;;;;;5004412;28;20064;-61
2023/05/13 02:05:17;;;;;;;15.73;14.02;;;11.80;99.90;;;;;;4999843;28;20069;-61
2023/05/13 02:07:43;;;;;;;17.52;14.23;;;11.90;99.90;;;;;;5008874;28;20390;-61
2023/05/13 02:10:09;;;;;;;15.93;14.20;;;11.80;99.90;;;;;;5007753;28;20061;-61
2023/05/13 02:12:35;;;;;;;15.85;14.25;;;11.80;99.90;;;;;;5003393;28;20049;-61
2023/05/13 02:15:01;;;;;;;16.20;14.48;;;11.80;99.90;;;;;;5004618;28;20045;-62
2023/05/13 02:17:26;;;;;;;18.33;14.55;;;11.80;99.90;;;;;;5000837;28;20049;-62
2023/05/13 02:19:52;;;;;;;17.45;13.85;;;11.70;99.90;;;;;;5002047;28;20036;-62
2023/05/13 02:22:17;;;;;;;18.20;14.07;;;11.70;99.90;;;;;;5002274;28;20068;-61
2023/05/13 02:24:43;;;;;;;18.05;13.85;;;11.70;99.90;;;;;;5003071;28;20104;-62
2023/05/13 02:27:11;;;;;;;17.95;14.35;;;11.70;99.90;;;;;;5005525;28;20080;-61
2023/05/13 02:29:37;;;;;;;15.18;13.55;;;11.70;99.90;;;;;;5003296;28;20143;-61
2023/05/13 02:32:03;;;;;;;15.52;13.73;;;11.80;99.90;;;;;;5008277;28;20389;-60
2023/05/13 02:34:28;;;;;;;16.05;13.77;;;11.80;99.90;;;;;;5004446;28;20045;-61
2023/05/13 02:36:54;;;;;;;16.27;13.45;;;11.80;99.90;;;;;;5008593;28;20042;-61
2023/05/13 02:39:20;;;;;;;15.70;13.43;;;11.90;99.90;;;;;;5005007;28;20056;-61
2023/05/13 02:41:45;;;;;;;15.68;13.20;;;11.80;99.90;;;;;;5005269;28;20430;-61
2023/05/13 02:44:11;;;;;;;15.02;12.20;;;11.70;99.90;;;;;;5007812;28;20058;-61
2023/05/13 02:46:37;;;;;;;14.73;12.77;;;11.50;99.90;;;;;;4997069;28;20041;-62
2023/05/13 02:49:02;;;;;;;15.40;13.52;;;11.40;99.90;;;;;;5003283;28;20109;-61
2023/05/13 02:51:28;;;;;;;18.40;13.88;;;11.40;99.90;;;;;;5002539;28;20034;-61
2023/05/13 02:53:53;;;;;;;15.63;13.68;;;11.50;99.90;;;;;;5008893;28;20468;-61
2023/05/13 02:56:19;;;;;;;15.65;13.00;;;11.60;99.90;;;;;;4998388;28;20092;-61
2023/05/13 02:58:45;;;;;;;15.55;12.95;;;11.40;99.90;;;;;;5006521;28;20033;-61
2023/05/13 03:01:11;;;;;;;14.18;12.35;;;11.40;99.90;;;;;;5011037;28;20037;-61
2023/05/13 03:03:36;;;;;;;16.33;13.50;;;11.30;99.90;;;;;;5009168;28;20041;-62
2023/05/13 03:06:02;;;;;;;15.70;12.85;;;11.40;99.90;;;;;;5008542;28;20643;-61
2023/05/13 03:08:28;;;;;;;14.88;13.38;;;11.30;99.90;;;;;;5003886;28;20041;-61
2023/05/13 03:10:53;;;;;;;14.38;12.82;;;11.30;99.90;;;;;;5008467;28;20242;-61
2023/05/13 03:13:19;;;;;;;18.25;12.13;;;11.30;99.90;;;;;;5011561;28;20405;-62
2023/05/13 03:15:44;;;;;;;13.57;12.05;;;11.10;99.90;;;;;;5006026;28;20152;-62
2023/05/13 03:18:10;;;;;;;14.18;12.43;;;11.10;99.90;;;;;;5001032;28;20480;-62
2023/05/13 03:20:36;;;;;;;13.27;11.90;;;11.10;99.90;;;;;;5000564;28;20038;-61
2023/05/13 03:23:01;;;;;;;13.82;12.23;;;11.00;99.90;;;;;;4999227;28;20052;-60
2023/05/13 03:25:27;;;;;;;17.02;11.90;;;11.20;99.90;;;;;;5004647;28;20109;-61
2023/05/13 03:27:53;;;;;;;14.43;11.98;;;11.10;99.90;;;;;;4998639;28;20405;-62
2023/05/13 03:30:19;;;;;;;13.73;11.55;;;11.00;99.90;;;;;;5009978;28;20486;-62
2023/05/13 03:32:45;;;;;;;17.50;12.27;;;10.90;99.90;;;;;;5002618;28;20048;-61
2023/05/13 03:35:10;;;;;;;14.52;12.57;;;11.30;99.90;;;;;;4998440;28;20056;-61
2023/05/13 03:37:36;;;;;;;13.52;12.13;;;11.10;99.90;;;;;;5004809;28;20796;-61
2023/05/13 03:40:02;;;;;;;14.82;12.18;;;11.20;99.90;;;;;;5003265;28;20018;-58
2023/05/13 03:42:29;;;;;;;12.93;11.60;;;11.00;99.90;;;;;;5010847;28;20030;-62
2023/05/13 03:44:55;;;;;;;15.13;12.02;;;10.90;99.90;;;;;;4995084;28;20030;-62
2023/05/13 03:47:22;;;;;;;15.60;11.63;;;11.10;99.90;;;;;;4997021;28;22296;-61
2023/05/13 03:49:47;;;;;;;13.80;12.38;;;10.20;99.90;;;;;;4997132;28;20248;-62
2023/05/13 03:52:13;;;;;;;13.52;11.70;;;11.00;99.90;;;;;;5002597;28;20252;-61
2023/05/13 03:54:39;;;;;;;14.68;12.55;;;11.00;99.90;;;;;;5000889;28;20395;-61
2023/05/13 03:57:06;;;;;;;14.02;11.98;;;11.10;99.90;;;;;;5009278;28;20030;-61
2023/05/13 03:59:31;;;;;;;13.80;11.55;;;11.10;99.90;;;;;;5007322;28;20038;-61
2023/05/13 04:01:57;;;;;;;13.32;11.82;;;11.00;99.90;;;;;;5007607;28;20034;-61
2023/05/13 04:04:22;;;;;;;14.00;12.50;;;11.10;99.90;;;;;;5002637;28;20030;-61
2023/05/13 04:06:48;;;;;;;15.63;12.43;;;11.10;99.90;;;;;;5000012;28;20086;-61
2023/05/13 04:09:14;;;;;;;14.88;12.10;;;11.10;99.90;;;;;;4987048;28;20385;-61
2023/05/13 04:11:39;;;;;;;19.92;13.07;;;11.40;99.90;;;;;;5006381;28;20033;-61
2023/05/13 04:14:05;;;;;;;14.68;12.27;;;11.40;99.90;;;;;;5001586;28;20034;-61
2023/05/13 04:16:31;;;;;;;15.90;13.00;;;11.20;99.90;;;;;;4998401;28;20092;-62
2023/05/13 04:18:56;;;;;;;15.00;13.13;;;11.10;99.90;;;;;;4996587;28;20047;-61
2023/05/13 04:21:22;;;;;;;13.57;12.00;;;11.10;99.90;;;;;;5000351;28;20042;-61
2023/05/13 04:23:47;;;;;;;15.02;12.05;;;11.30;99.90;;;;;;4995339;28;20035;-61
2023/05/13 04:26:13;;;;;;;13.70;12.18;;;11.20;99.90;;;;;;4995306;28;20060;-61
2023/05/13 04:28:38;;;;;;;14.98;12.02;;;11.30;99.90;;;;;;5006851;28;20033;-62
2023/05/13 04:31:04;;;;;;;15.48;12.52;;;11.30;99.90;;;;;;5008784;28;20429;-63
2023/05/13 04:33:30;;;;;;;14.02;12.52;;;11.30;99.90;;;;;;5007305;28;20037;-62
2023/05/13 04:35:56;;;;;;;16.83;12.73;;;11.40;99.90;;;;;;4996214;28;20071;-62
2023/05/13 04:38:21;;;;;;;18.25;12.93;;;11.30;99.90;;;;;;4999416;28;20050;-61
2023/05/13 04:40:47;;;;;;;16.58;12.50;;;11.40;99.90;;;;;;5001974;28;20449;-62
2023/05/13 04:43:12;;;;;;;16.48;13.18;;;11.50;99.90;;;;;;4985745;28;20440;-61
2023/05/13 04:45:38;;;;;;;17.20;12.68;;;11.50;99.90;;;;;;5000599;28;20061;-61
2023/05/13 04:48:04;;;;;;;15.48;13.13;;;11.70;99.90;;;;;;5002821;28;20504;-61
2023/05/13 04:50:30;;;;;;;22.73;14.23;;;11.60;99.90;;;;;;5000652;28;20521;-61
2023/05/13 04:52:56;;;;;;;16.55;13.60;;;11.80;99.90;;;;;;4998089;28;20748;-61
2023/05/13 04:55:22;;;;;;;15.90;14.07;;;11.80;99.90;;;;;;5007145;28;20045;-61
2023/05/13 04:57:47;;;;;;;14.82;13.27;;;11.90;99.90;;;;;;5003797;28;20408;-62
2023/05/13 05:00:14;;;;;;;17.55;14.13;;;12.00;99.90;;;;;;5003622;28;20128;-61
2023/05/13 05:02:39;;;;;;;14.27;12.77;;;11.90;99.90;;;;;;5010307;28;20315;-62
2023/05/13 05:05:05;;;;;;;15.55;12.88;;;12.10;99.90;;;;;;5011372;28;20514;-61
2023/05/13 05:07:31;;;;;;;18.75;13.38;;;12.20;54.00;;;;;;5007458;28;20044;-67
2023/05/13 05:09:57;;;;;;;15.95;13.27;;;12.20;42.90;;;;;;5010988;28;20080;-67
2023/05/13 05:12:22;;;;;;;18.08;13.35;;;12.10;78.30;;;;;;5002565;28;20037;-67
2023/05/13 05:14:48;;;;;;;23.13;14.18;;;12.00;99.90;;;;;;5005560;28;20034;-67
2023/05/13 05:17:13;;;;;;;18.27;13.77;;;12.10;99.90;;;;;;5006284;28;20026;-67
2023/05/13 05:19:39;;;;;;;14.93;12.95;;;12.10;99.90;;;;;;5007229;28;20045;-67
2023/05/13 05:22:04;;;;;;;14.60;13.10;;;12.20;99.20;;;;;;5003806;28;20486;-67
2023/05/13 05:24:30;;;;;;;15.48;12.70;;;12.20;63.10;;;;;;5008126;28;20553;-67
2023/05/13 05:26:56;;;;;;;15.52;13.25;;;12.30;75.00;;;;;;5009618;28;20107;-67
2023/05/13 05:29:21;;;;;;;14.35;12.77;;;12.50;62.50;;;;;;5008316;28;20038;-67
2023/05/13 05:31:47;;;;;;;16.25;12.93;;;12.60;13.80;;;;;;5006292;28;20095;-67
2023/05/13 05:34:13;;;;;;;16.38;13.20;;;12.70;27.10;;;;;;5007208;28;20044;-67
2023/05/13 05:36:38;;;;;;;14.68;12.73;;;12.60;1.00;;;;;;5002965;28;20111;-67
2023/05/13 05:39:04;;;;;;;19.27;13.65;;;12.60;1.00;;;;;;5013049;28;20084;-67
2023/05/13 05:41:30;;;;;;;16.10;13.10;;;12.70;1.00;;;;;;4999314;28;20577;-67
2023/05/13 05:43:55;;;;;;;17.77;13.77;;;12.80;1.00;;;;;;5003268;28;20121;-68
2023/05/13 05:46:24;;;;;;;17.65;13.85;;;12.80;1.00;;;;;;5005306;28;20042;-67
2023/05/13 05:48:49;;;;;;;14.52;12.88;;;13.00;1.00;;;;;;4999637;28;20076;-67
2023/05/13 05:51:15;;;;;;;17.55;13.93;;;13.10;1.00;;;;;;5000902;28;20438;-67
2023/05/13 05:53:41;;;;;;;14.52;12.95;;;13.30;1.00;;;;;;5008775;28;20037;-67
2023/05/13 05:56:07;;;;;;;16.17;13.10;;;13.30;1.00;;;;;;5004867;28;20452;-66
2023/05/13 05:58:33;;;;;;;15.35;13.35;;;13.30;1.00;;;;;;5008342;28;20046;-68
2023/05/13 06:00:59;;;;;;;14.95;13.35;;;13.40;1.00;;;;;;5011853;28;20037;-68
2023/05/13 06:03:25;;;;;;;17.15;13.50;;;13.40;1.00;;;;;;5013643;28;20038;-67
2023/05/13 06:05:52;;;;;;;15.10;13.50;;;13.40;1.00;;;;;;5012281;28;20034;-69
2023/05/13 06:08:17;;;;;;;15.23;13.10;;;13.60;1.00;;;;;;5003739;28;20097;-67
2023/05/13 06:10:43;;;;;;;16.17;13.43;;;13.70;1.00;;;;;;5004264;28;20509;-67
2023/05/13 06:13:09;;;;;;;16.27;13.57;;;13.80;1.00;;;;;;5002676;28;20061;-67
2023/05/13 06:15:36;;;;;;;16.27;13.73;;;13.90;1.00;;;;;;4994684;28;20080;-68
2023/05/13 06:18:04;;;;;;;16.88;13.38;;;13.80;1.00;;;;;;5001329;28;20038;-63
2023/05/13 06:20:30;;;;;;;15.63;13.50;;;13.90;1.00;;;;;;4999003;28;20545;-65
2023/05/13 06:22:55;;;;;;;18.92;14.05;;;13.90;1.00;;;;;;4995355;28;20034;-65
2023/05/13 06:25:21;;;;;;;16.50;14.13;;;13.80;1.00;;;;;;5010399;28;20994;-65
2023/05/13 06:27:47;;;;;;;18.60;14.55;;;14.10;1.00;;;;;;4984789;28;20044;-65
2023/05/13 06:30:12;;;;;;;20.13;13.93;;;14.00;1.00;;;;;;5004905;28;20034;-60
2023/05/13 06:32:38;;;;;;;15.68;13.68;;;14.10;1.00;;;;;;5007800;28;20034;-60
2023/05/13 06:35:04;;;;;;;21.13;13.55;;;14.10;1.00;;;;;;5011577;28;20191;-59
2023/05/13 06:37:29;;;;;;;16.48;13.80;;;14.30;1.00;;;;;;5010972;28;20163;-60
2023/05/13 06:39:55;;;;;;;17.27;13.75;;;14.60;1.00;;;;;;5005076;28;20040;-60
2023/05/13 06:42:20;;;;;;;20.65;13.45;;;14.50;1.00;;;;;;5008119;28;20092;-59
2023/05/13 06:44:46;;;;;;;19.77;15.40;;;14.60;1.00;;;;;;5017258;28;20029;-60
2023/05/13 06:47:14;;;;;;;15.10;11.85;;;14.70;1.00;;;;;;5013510;28;20519;-60
2023/05/13 06:49:41;;;;;;;20.85;12.98;;;14.80;1.00;;;;;;4998262;28;20445;-60
2023/05/13 06:52:07;;;;;;;16.85;11.30;;;14.70;99.90;;;;;;4990213;28;20033;-60
2023/05/13 06:54:33;;;;;;;15.27;11.20;;;14.80;99.90;;;;;;5001723;28;20072;-60
2023/05/13 06:56:58;;;;;;;14.27;11.70;;;14.90;99.90;;;;;;5011269;28;20317;-60
2023/05/13 06:59:24;;;;;;;17.50;11.38;;;15.10;99.90;;;;;;4993456;28;20050;-60
2023/05/13 07:01:49;;;;;;;13.43;10.75;;;15.00;99.90;;;;;;5003321;28;20030;-59
2023/05/13 07:04:15;;;;;;;14.38;11.05;;;15.10;99.90;;;;;;4991963;28;20027;-60
2023/05/13 07:06:41;;;;;;;17.08;10.68;;;15.30;99.90;;;;;;5017598;28;20038;-59
2023/05/13 07:09:08;;;;;;;13.55;10.52;;;15.40;1.00;;;;;;5003649;28;20026;-60
2023/05/13 07:11:37;;;;;;;17.02;10.20;;;15.50;99.90;;;;;;5011132;28;20201;-60
2023/05/13 07:14:02;;;;;;;15.18;10.57;;;15.50;1.00;;;;;;5005596;28;20085;-61
2023/05/13 07:16:28;;;;;;;15.82;10.32;;;15.60;99.90;;;;;;5011480;28;20038;-60
2023/05/13 07:18:54;;;;;;;16.23;9.65;;;15.70;1.00;;;;;;5008016;28;20034;-60
2023/05/13 07:21:20;;;;;;;16.50;10.40;;;15.90;1.00;;;;;;5010407;28;20037;-60
2023/05/13 07:23:46;;;;;;;13.50;10.25;;;15.90;1.00;;;;;;5005359;28;20038;-59
2023/05/13 07:26:11;;;;;;;15.15;9.55;;;16.00;1.00;;;;;;5011128;28;20030;-59
2023/05/13 07:28:37;;;;;;;15.55;9.98;;;16.30;99.90;;;;;;5018042;28;20050;-61
2023/05/13 07:31:05;;;;;;;14.15;9.50;;;16.30;99.90;;;;;;5016798;28;20116;-61
2023/05/13 07:33:31;;;;;;;11.65;9.20;;;16.40;99.90;;;;;;5002469;28;20109;-59
2023/05/13 07:35:57;;;;;;;14.07;8.82;;;16.50;1.00;;;;;;5011316;28;20041;-60
2023/05/13 07:38:22;;;;;;;13.60;9.07;;;16.50;99.90;;;;;;5006066;28;20042;-60
2023/05/13 07:40:48;;;;;;;12.82;8.55;;;16.40;1.00;;;;;;5006775;28;20413;-59
2023/05/13 07:43:16;;;;;;;14.00;8.20;;;16.70;99.90;;;;;;5013438;28;20353;-60
2023/05/13 07:45:42;;;;;;;11.80;8.80;;;16.70;1.00;;;;;;5014541;28;20076;-60
2023/05/13 07:48:08;;;;;;;12.23;8.60;;;16.70;1.00;;;;;;5011932;28;20438;-60
2023/05/13 07:50:34;;;;;;;13.07;8.88;;;16.70;1.00;;;;;;5012318;28;20128;-60
2023/05/13 07:53:01;;;;;;;12.90;8.75;;;16.90;1.00;;;;;;5000130;28;20494;-60
2023/05/13 07:55:27;;;;;;;12.32;8.65;;;17.00;1.00;;;;;;5008510;28;20080;-60
2023/05/13 07:57:52;;;;;;;10.00;8.50;;;17.20;1.00;;;;;;5016351;28;20537;-60
2023/05/13 08:00:18;;;;;;;13.13;8.60;;;17.30;1.00;;;;;;5013917;28;20140;-60
2023/05/13 08:02:44;;;;;;;13.07;8.85;;;17.10;1.00;;;;;;5009271;28;20034;-61
2023/05/13 08:05:10;;;;;;;12.68;9.05;;;17.20;99.90;;;;;;5010994;28;20036;-60
2023/05/13 08:07:35;;;;;;;12.40;8.63;;;17.40;99.90;;;;;;5000362;28;20665;-61
2023/05/13 08:10:01;;;;;;;60.28;48.30;;;17.50;1.00;;;;;;5009743;28;20051;-61
2023/05/13 08:12:27;;;;;;;11.77;8.13;;;17.50;1.00;;;;;;5005851;28;20553;-62
2023/05/13 08:14:52;;;;;;;14.00;8.05;;;17.80;1.00;;;;;;5003917;28;20030;-58
2023/05/13 08:17:18;;;;;;;12.27;7.68;;;17.80;1.00;;;;;;5001504;28;20137;-58
2023/05/13 08:19:44;;;;;;;13.05;7.70;;;17.70;99.90;;;;;;5002702;28;20026;-58
2023/05/13 08:22:10;;;;;;;12.05;8.40;;;17.70;41.40;;;;;;5004080;28;20037;-57
2023/05/13 08:24:36;;;;;;;14.13;7.70;;;17.70;31.70;;;;;;5017027;28;20614;-58
2023/05/13 08:27:02;;;;;;;12.75;8.48;;;17.80;99.90;;;;;;5004280;28;20041;-59
2023/05/13 08:29:28;;;;;;;11.05;8.10;;;17.90;4.10;;;;;;5008019;28;20041;-57
2023/05/13 08:31:54;;;;;;;13.43;8.27;;;17.90;1.00;;;;;;5003445;28;20421;-57
2023/05/13 08:34:19;;;;;;;10.15;8.18;;;17.90;99.90;;;;;;5002878;28;20034;-58
2023/05/13 08:36:45;;;;;;;10.98;8.18;;;18.10;99.90;;;;;;5003740;28;20346;-58
2023/05/13 08:39:11;;;;;;;11.52;7.43;;;18.40;99.90;;;;;;5004785;28;20382;-58
2023/05/13 08:41:36;;;;;;;14.88;8.23;;;18.20;1.00;;;;;;5004736;28;20030;-58
2023/05/13 08:44:10;;;;;;;14.07;8.15;;;18.30;99.90;;;;;;5007962;28;20037;-58
2023/05/13 08:46:37;;;;;;;12.27;7.68;;;18.20;1.20;;;;;;5011975;28;20034;-58
2023/05/13 08:49:04;;;;;;;11.10;7.68;;;18.40;99.90;;;;;;4997375;28;20504;-57
2023/05/13 08:51:30;;;;;;;12.05;7.53;;;18.70;99.90;;;;;;5000123;28;20478;-57
2023/05/13 08:53:56;;;;;;;11.95;7.63;;;18.50;1.00;;;;;;5008160;28;20026;-58
2023/05/13 08:56:24;;;;;;;12.75;7.25;;;18.60;1.00;;;;;;5011171;28;20402;-58
2023/05/13 08:58:50;;;;;;;14.82;7.90;;;18.50;1.00;;;;;;4996773;28;20044;-57
2023/05/13 09:01:16;;;;;;;14.13;7.68;;;18.50;1.00;;;;;;5006687;28;20152;-57
2023/05/13 09:03:58;;;;;;;14.43;7.30;;;18.60;1.00;;;;;;5007491;28;20098;-58
2023/05/13 09:06:24;;;;;;;12.00;7.27;;;18.60;99.90;;;;;;5006731;28;20053;-58
2023/05/13 09:08:50;;;;;;;13.05;7.28;;;18.90;1.00;;;;;;5003437;28;20772;-57
2023/05/13 09:11:16;;;;;;;12.82;6.93;;;18.90;1.00;;;;;;5005340;28;20044;-58
2023/05/13 09:13:43;;;;;;;15.68;7.05;;;19.10;1.00;;;;;;5004503;28;20452;-57
2023/05/13 09:16:10;;;;;;;12.90;7.28;;;19.10;99.90;;;;;;5000623;28;20063;-58
2023/05/13 09:18:37;;;;;;;12.77;6.68;;;19.20;1.00;;;;;;5008127;28;20042;-58
2023/05/13 09:21:28;;;;;;;11.32;6.85;;;19.10;99.90;;;;;;5011780;28;20061;-58
2023/05/13 09:24:08;;;;;;;10.95;6.55;;;19.10;99.90;;;;;;5008889;28;20057;-57
2023/05/13 09:26:33;;;;;;;12.38;6.18;;;19.00;89.90;;;;;;4999044;28;20065;-58
2023/05/13 09:29:21;;;;;;;10.93;6.43;;;19.00;99.90;;;;;;5007061;28;20061;-57
2023/05/13 09:31:55;;;;;;;10.07;5.68;;;19.00;99.90;;;;;;5002269;28;20036;-57
2023/05/13 09:34:24;;;;;;;11.93;7.13;;;19.10;99.90;;;;;;5003241;28;20038;-57
2023/05/13 09:37:01;;;;;;;17.02;10.38;;;19.10;22.00;;;;;;4984727;28;20038;-57
2023/05/13 09:39:27;;;;;;;14.00;6.35;;;19.10;99.90;;;;;;5001595;28;20188;-57
2023/05/13 09:41:53;;;;;;;12.98;6.78;;;19.10;1.00;;;;;;5009232;28;20029;-57
2023/05/13 09:44:20;;;;;;;10.50;6.07;;;19.00;99.90;;;;;;4997716;28;20393;-57
2023/05/13 09:46:46;;;;;;;9.15;5.60;;;19.00;1.00;;;;;;4996757;28;20068;-61
2023/05/13 09:49:13;;;;;;;7.63;4.95;;;19.10;1.00;;;;;;5012537;28;20077;-61
2023/05/13 09:51:38;;;;;;;8.95;5.13;;;19.20;99.90;;;;;;5004049;28;20165;-61
2023/05/13 09:54:05;;;;;;;8.95;5.05;;;19.30;99.90;;;;;;5014724;28;20143;-61
2023/05/13 09:56:33;;;;;;;9.35;4.68;;;19.40;1.00;;;;;;5012247;28;20073;-61
2023/05/13 09:59:00;;;;;;;9.07;4.60;;;19.60;99.90;;;;;;5007250;28;20432;-61
2023/05/13 10:01:27;;;;;;;8.63;4.57;;;19.80;1.00;;;;;;5014920;28;20072;-61
2023/05/13 10:03:58;;;;;;;8.77;4.50;;;19.90;1.00;;;;;;5013746;28;20419;-61
2023/05/13 10:06:26;;;;;;;11.05;4.35;;;20.10;99.90;;;;;;5009314;28;20045;-60
2023/05/13 10:08:54;;;;;;;7.80;4.10;;;20.20;1.00;;;;;;5005877;28;20042;-60
2023/05/13 10:11:22;;;;;;;5.97;4.00;;;20.30;99.90;;;;;;5004879;28;20100;-60
2023/05/13 10:14:01;;;;;;;7.53;4.32;;;20.40;99.90;;;;;;5019798;28;20033;-60
2023/05/13 10:16:28;;;;;;;9.40;4.45;;;20.40;99.90;;;;;;5010224;28;20643;-60
2023/05/13 10:18:55;;;;;;;9.48;4.22;;;20.50;1.00;;;;;;5002480;28;20066;-60
2023/05/13 10:21:21;;;;;;;8.05;3.92;;;20.50;1.00;;;;;;5005215;28;21187;-59
2023/05/13 10:23:50;;;;;;;7.38;3.95;;;20.50;28.00;;;;;;5012766;28;20065;-59
2023/05/13 10:26:16;;;;;;;8.98;3.92;;;20.60;1.00;;;;;;5006781;28;20041;-59
2023/05/13 10:28:42;;;;;;;10.70;4.93;;;20.70;99.90;;;;;;5001319;28;20143;-59
2023/05/13 10:31:08;;;;;;;7.38;4.30;;;20.70;99.90;;;;;;5011642;28;20038;-58
2023/05/13 10:33:33;;;;;;;4.65;3.70;;;20.80;1.00;;;;;;5008740;28;20070;-58
2023/05/13 10:36:25;;;;;;;6.03;3.60;;;20.70;1.00;;;;;;4995401;28;20354;-59
2023/05/13 10:39:13;;;;;;;5.28;4.00;;;20.90;99.90;;;;;;5012871;28;20318;-58
2023/05/13 10:42:06;;;;;;;6.80;3.70;;;20.80;1.00;;;;;;5003578;28;20040;-58
2023/05/13 10:44:34;;;;;;;6.90;3.53;;;20.90;99.90;;;;;;5014256;28;20560;-58
2023/05/13 10:47:01;;;;;;;7.35;3.58;;;21.00;1.00;;;;;;5010759;28;20034;-59
2023/05/13 10:49:33;;;;;;;7.03;4.30;;;21.20;1.00;;;;;;5014337;28;20486;-59
2023/05/13 10:52:12;;;;;;;6.32;3.50;;;21.20;37.70;;;;;;5000331;28;20409;-59
2023/05/13 10:54:40;;;;;;;9.85;4.40;;;21.30;1.00;;;;;;5002927;28;20045;-59
2023/05/13 10:57:07;;;;;;;6.75;4.07;;;21.20;99.90;;;;;;5004274;28;20457;-59
2023/05/13 10:59:35;;;;;;;12.40;4.00;;;21.10;99.90;;;;;;5004883;28;20067;-59
2023/05/13 11:02:22;;;;;;;10.40;4.57;;;21.40;99.90;;;;;;4994750;28;20550;-59
2023/05/13 11:04:59;;;;;;;11.80;4.80;;;21.30;99.90;;;;;;5004277;28;20038;-59
2023/05/13 11:07:28;;;;;;;16.42;5.80;;;21.30;99.90;;;;;;5006444;28;20149;-59
2023/05/13 11:09:53;;;;;;;10.07;4.35;;;21.30;99.90;;;;;;4996752;28;20346;-59
2023/05/13 11:12:19;;;;;;;10.30;4.13;;;21.30;99.90;;;;;;5007825;28;20038;-59
2023/05/13 11:14:44;;;;;;;6.55;3.80;;;21.50;99.90;;;;;;5009892;28;20045;-59
2023/05/13 11:17:11;;;;;;;8.10;4.15;;;21.60;99.90;;;;;;4999522;28;20405;-59
2023/05/13 11:19:37;;;;;;;6.03;3.80;;;21.40;1.00;;;;;;5002241;28;21409;-59
2023/05/13 11:22:23;;;;;;;8.07;4.47;;;21.40;1.00;;;;;;5001744;28;20045;-60
2023/05/13 11:25:09;;;;;;;14.77;4.10;;;21.50;1.00;;;;;;5006571;28;20044;-61
2023/05/13 11:27:40;;;;;;;5.10;3.60;;;21.60;96.40;;;;;;5002326;28;20034;-61
2023/05/13 11:30:26;;;;;;;6.88;3.90;;;21.60;92.30;;;;;;5007965;28;20529;-61
2023/05/13 11:32:56;;;;;;;10.40;3.67;;;21.60;1.00;;;;;;4999104;28;20033;-60
2023/05/13 11:35:26;;;;;;;10.95;4.10;;;21.30;1.00;;;;;;5007078;28;20051;-61
2023/05/13 11:37:57;;;;;;;12.43;4.38;;;21.40;1.00;;;;;;4989982;28;20038;-60
2023/05/13 11:40:27;;;;;;;7.97;3.92;;;21.70;1.00;;;;;;5004291;28;20044;-60
2023/05/13 11:42:54;;;;;;;7.65;3.78;;;21.70;1.00;;;;;;5013463;28;20492;-60
2023/05/13 11:45:21;;;;;;;5.47;3.67;;;22.00;1.00;;;;;;5009364;28;20156;-61
2023/05/13 11:47:47;;;;;;;9.40;3.72;;;21.90;1.00;;;;;;5008287;28;20442;-60
2023/05/13 11:50:19;;;;;;;7.65;3.35;;;21.60;1.00;;;;;;5002831;28;20030;-61
2023/05/13 11:52:53;;;;;;;8.52;3.47;;;21.40;1.00;;;;;;5000961;28;20038;-60
2023/05/13 11:55:33;;;;;;;6.60;3.75;;;21.60;1.00;;;;;;5001149;28;20034;-61
2023/05/13 11:57:59;;;;;;;7.75;3.83;;;21.70;99.90;;;;;;5003817;28;20704;-60
2023/05/13 12:00:26;;;;;;;6.63;3.60;;;21.80;1.00;;;;;;5002065;28;20145;-61
2023/05/13 12:02:52;;;;;;;5.45;3.25;;;21.90;99.90;;;;;;5005237;28;20130;-60
2023/05/13 12:05:18;;;;;;;6.07;3.30;;;21.90;99.90;;;;;;5003340;28;20042;-61
2023/05/13 12:07:44;;;;;;;7.40;3.45;;;21.80;99.90;;;;;;5005244;28;20037;-60
2023/05/13 12:10:10;;;;;;;10.13;3.30;;;22.00;99.90;;;;;;5001666;28;20087;-60
2023/05/13 12:12:41;;;;;;;7.18;3.92;;;22.30;99.90;;;;;;5005662;28;20380;-60
2023/05/13 12:15:10;;;;;;;6.78;3.78;;;22.30;1.00;;;;;;5004273;28;20113;-60
2023/05/13 12:17:36;;;;;;;7.13;3.65;;;22.50;99.90;;;;;;4996517;28;20038;-60
2023/05/13 12:20:13;;;;;;;7.63;3.60;;;22.40;99.90;;;;;;5001829;28;20036;-60
2023/05/13 12:22:41;;;;;;;7.65;3.60;;;22.30;99.90;;;;;;5003783;28;20045;-60
2023/05/13 12:25:38;;;;;;;7.43;3.63;;;22.40;1.00;;;;;;5000346;28;20034;-60
2023/05/13 12:28:17;;;;;;;7.70;4.00;;;22.30;99.90;;;;;;5006005;28;20037;-60
2023/05/13 12:30:52;;;;;;;5.50;3.13;;;22.30;99.90;;;;;;4998467;28;20096;-59
2023/05/13 12:33:23;;;;;;;6.82;3.50;;;22.00;99.90;;;;;;5003082;28;20079;-60
2023/05/13 12:35:51;;;;;;;8.77;3.17;;;22.00;99.90;;;;;;5006977;28;20485;-59
2023/05/13 12:38:22;;;;;;;5.15;3.22;;;22.00;99.90;;;;;;5010769;28;20521;-60